Terminal Aerodrome Forecast
Issued by NWS Cleveland, OH

Home | Current Version | Previous Version | Graphics & Text | Print | Product List | Glossary On
Versions: 1 2 3 4 5 6 7 8 9 10 11 12 13 14 15 16 17 18 19 20 21 22 23
000
FTUS41 KCLE 142024 AAA
TAFTOL
TAF AMD
KTOL 142024Z 1420/1518 20010KT P6SM OVC025
      TEMPO 1423/1502 -SHRA
     FM150300 23008KT 6SM BR OVC007
     FM151300 23008KT P6SM OVC015=

USA.gov is the U.S. government's official web portal to all federal, state and local government web resources and services.